createdAt,value
2017-08-16T04:50:04.906Z,947.6
2017-08-16T04:51:12.883Z,947.6
2017-08-16T04:52:21.109Z,947.6
2017-08-16T04:53:29.051Z,947.6
2017-08-16T04:54:37.141Z,947.6
2017-08-16T04:55:45.284Z,947.6
2017-08-16T04:56:53.317Z,947.6
2017-08-16T04:58:01.403Z,947.6
2017-08-16T04:59:09.493Z,947.6
2017-08-16T05:00:17.580Z,947.6
2017-08-16T05:01:25.809Z,947.6
2017-08-16T05:02:33.797Z,947.6
2017-08-16T05:03:42.044Z,947.6
2017-08-16T05:04:49.944Z,947.6
2017-08-16T05:05:58.105Z,947.6
2017-08-16T05:07:06.177Z,947.6
2017-08-16T05:08:14.209Z,947.6
2017-08-16T05:09:22.298Z,947.6
2017-08-16T05:10:30.386Z,947.6
2017-08-16T05:11:38.685Z,947.7
2017-08-16T05:12:46.683Z,947.6
2017-08-16T05:13:54.650Z,947.6
2017-08-16T05:15:02.738Z,947.7
2017-08-16T05:16:11.000Z,947.6
2017-08-16T05:17:18.915Z,947.6
2017-08-16T05:18:27.058Z,947.6
2017-08-16T05:19:35.091Z,947.6
2017-08-16T05:20:43.179Z,947.6
2017-08-16T05:21:51.387Z,947.6
2017-08-16T05:22:59.354Z,947.6
2017-08-16T05:24:07.500Z,947.6
2017-08-16T05:25:15.590Z,947.6
2017-08-16T05:26:23.725Z,947.6
2017-08-16T05:27:31.707Z,947.6
2017-08-16T05:28:39.795Z,947.7
2017-08-16T05:29:48.158Z,947.6
2017-08-16T05:30:55.972Z,947.6
2017-08-16T05:32:04.074Z,947.6
2017-08-16T05:33:12.157Z,947.6
2017-08-16T05:34:20.277Z,947.7
2017-08-16T05:35:28.389Z,947.6
2017-08-16T05:36:36.422Z,947.7
2017-08-16T05:37:44.634Z,947.7
2017-08-16T05:38:52.618Z,947.7
2017-08-16T05:40:00.685Z,947.8
2017-08-16T05:41:08.833Z,947.8
2017-08-16T05:42:16.862Z,947.8
2017-08-16T05:43:24.950Z,947.8
2017-08-16T05:44:33.039Z,947.8
2017-08-16T05:45:41.127Z,947.8
2017-08-16T05:46:49.336Z,947.8
2017-08-16T05:47:57.478Z,947.9
2017-08-16T05:49:05.394Z,947.9
2017-08-16T05:50:13.481Z,947.8
2017-08-16T05:51:21.571Z,947.9
2017-08-16T05:52:29.713Z,947.8
2017-08-16T05:53:37.873Z,947.8
2017-08-16T05:54:45.834Z,947.9
2017-08-16T05:55:53.921Z,947.8
2017-08-16T05:57:02.010Z,947.9
2017-08-16T05:58:10.156Z,947.8
2017-08-16T05:59:18.190Z,947.9
2017-08-16T06:00:26.285Z,947.9
2017-08-16T06:01:34.366Z,947.8
2017-08-16T06:02:42.452Z,947.8
2017-08-16T06:03:50.659Z,947.8
2017-08-16T06:04:58.628Z,947.9
2017-08-16T06:06:06.893Z,947.8
2017-08-16T06:07:14.802Z,947.9
2017-08-16T06:08:22.890Z,947.9
2017-08-16T06:09:31.108Z,947.8
2017-08-16T06:10:39.256Z,947.9
2017-08-16T06:11:47.305Z,947.9
2017-08-16T06:12:55.255Z,947.9
2017-08-16T06:14:03.343Z,947.9
2017-08-16T06:15:11.684Z,947.8
2017-08-16T06:16:19.520Z,947.8
2017-08-16T06:17:27.605Z,947.9
2017-08-16T06:18:35.692Z,947.9
2017-08-16T06:19:43.852Z,947.9
2017-08-16T06:20:51.996Z,947.9
2017-08-16T06:21:59.972Z,947.9
2017-08-16T06:23:08.052Z,947.9
2017-08-16T06:24:16.141Z,947.9
2017-08-16T06:25:24.281Z,947.9
2017-08-16T06:26:32.432Z,947.9
2017-08-16T06:27:40.399Z,948.0
2017-08-16T06:28:48.485Z,948.0
2017-08-16T06:29:56.571Z,948.0
2017-08-16T06:31:04.660Z,948.0
2017-08-16T06:32:12.808Z,948.0
2017-08-16T06:33:20.835Z,948.0
2017-08-16T06:34:28.995Z,948.0
2017-08-16T06:35:37.007Z,948.0
2017-08-16T06:36:45.092Z,948.0
2017-08-16T06:37:53.237Z,948.0
2017-08-16T06:39:01.322Z,948.0
2017-08-16T06:40:09.355Z,948.0
2017-08-16T06:41:17.561Z,948.0
2017-08-16T06:42:25.663Z,948.0
2017-08-16T06:43:33.718Z,948.0
2017-08-16T06:44:41.707Z,948.0
2017-08-16T06:45:49.793Z,948.0
2017-08-16T06:46:57.878Z,947.9
2017-08-16T06:48:05.990Z,947.9
2017-08-16T06:49:14.109Z,947.9
2017-08-16T06:50:22.140Z,947.9
2017-08-16T06:51:30.231Z,948.0
2017-08-16T06:52:38.340Z,948.0
2017-08-16T06:53:46.404Z,948.0
2017-08-16T06:54:54.613Z,948.0
2017-08-16T06:56:02.580Z,948.0
2017-08-16T06:57:10.726Z,948.0
2017-08-16T06:58:18.753Z,948.0
2017-08-16T06:59:26.847Z,948.0
2017-08-16T07:00:35.050Z,948.0
2017-08-16T07:01:43.138Z,948.0
2017-08-16T07:02:51.112Z,948.0
2017-08-16T07:03:59.193Z,948.0
2017-08-16T07:05:07.282Z,948.0
2017-08-16T07:06:15.537Z,947.9
2017-08-16T07:07:23.457Z,947.9
2017-08-16T07:08:31.543Z,947.9
2017-08-16T07:09:39.629Z,947.9
2017-08-16T07:10:47.718Z,947.9
2017-08-16T07:11:55.927Z,947.9
2017-08-16T07:13:03.951Z,947.9
2017-08-16T07:14:11.982Z,947.9
2017-08-16T07:15:20.150Z,947.9
2017-08-16T07:16:28.157Z,947.9
2017-08-16T07:17:36.304Z,947.9
2017-08-16T07:18:44.332Z,947.9
2017-08-16T07:19:52.420Z,947.9
2017-08-16T07:21:00.512Z,947.9
2017-08-16T07:22:08.597Z,947.8
2017-08-16T07:23:16.742Z,947.9
2017-08-16T07:24:24.770Z,947.9
2017-08-16T07:25:32.861Z,947.9
2017-08-16T07:26:40.948Z,947.9
2017-08-16T07:27:49.037Z,947.9
2017-08-16T07:28:57.179Z,947.9
2017-08-16T07:30:05.231Z,947.9
2017-08-16T07:31:13.316Z,947.9
2017-08-16T07:32:21.405Z,947.9
2017-08-16T07:33:29.491Z,947.9
2017-08-16T07:34:37.700Z,947.9
2017-08-16T07:35:45.668Z,947.9
2017-08-16T07:36:53.761Z,947.9
2017-08-16T07:38:01.845Z,947.9
2017-08-16T07:39:09.932Z,947.9
2017-08-16T07:40:18.076Z,947.8
2017-08-16T07:41:26.107Z,947.8
2017-08-16T07:42:34.382Z,947.8
2017-08-16T07:43:42.281Z,947.9
2017-08-16T07:44:50.489Z,947.9
2017-08-16T07:45:58.525Z,947.9
2017-08-16T07:47:06.716Z,947.8
2017-08-16T07:48:14.633Z,947.8
2017-08-16T07:49:22.726Z,947.9
2017-08-16T07:50:30.815Z,947.8
2017-08-16T07:51:38.962Z,947.9
2017-08-16T07:52:46.993Z,947.9
2017-08-16T07:53:55.082Z,947.8
2017-08-16T07:55:03.169Z,947.8
2017-08-16T07:56:11.371Z,947.9
2017-08-16T07:57:19.403Z,947.9
2017-08-16T07:58:27.433Z,947.8
2017-08-16T07:59:35.521Z,947.9
2017-08-16T08:00:43.801Z,947.8
2017-08-16T08:01:51.697Z,947.9
2017-08-16T08:02:59.910Z,947.9
2017-08-16T08:04:07.874Z,947.9
2017-08-16T08:05:15.966Z,947.9
2017-08-16T08:06:24.047Z,947.9
2017-08-16T08:07:32.136Z,947.9
2017-08-16T08:08:40.280Z,947.9
2017-08-16T08:09:48.311Z,947.9
2017-08-16T08:10:56.397Z,947.9
2017-08-16T08:12:04.485Z,947.9
2017-08-16T08:13:12.574Z,947.9
2017-08-16T08:14:20.814Z,947.9
2017-08-16T08:15:28.749Z,947.9
2017-08-16T08:16:36.894Z,947.9
2017-08-16T08:17:44.935Z,947.9
2017-08-16T08:18:53.017Z,947.9
2017-08-16T08:20:01.240Z,947.9
2017-08-16T08:21:09.186Z,947.9
2017-08-16T08:22:17.279Z,947.9
2017-08-16T08:23:25.372Z,947.9
2017-08-16T08:24:33.572Z,947.9
2017-08-16T08:25:41.661Z,947.9
2017-08-16T08:26:49.631Z,947.9
2017-08-16T08:27:57.719Z,947.9
2017-08-16T08:29:05.813Z,947.9
2017-08-16T08:30:13.893Z,947.9
2017-08-16T08:31:22.039Z,947.9
2017-08-16T08:32:30.190Z,947.9
2017-08-16T08:33:38.156Z,947.9
2017-08-16T08:34:46.245Z,947.9
2017-08-16T08:35:54.332Z,947.9
2017-08-16T08:37:02.542Z,947.9
2017-08-16T08:38:10.509Z,947.9
2017-08-16T08:39:18.596Z,947.9
2017-08-16T08:40:26.684Z,947.9
2017-08-16T08:41:34.777Z,947.9
2017-08-16T08:42:42.979Z,947.8
2017-08-16T08:43:50.946Z,947.8
2017-08-16T08:44:59.043Z,947.8
2017-08-16T08:46:07.122Z,947.8
2017-08-16T08:47:15.209Z,947.8
2017-08-16T08:48:23.355Z,947.8
2017-08-16T08:49:31.384Z,947.8
2017-08-16T08:50:39.473Z,947.8
2017-08-16T08:51:47.561Z,947.8
2017-08-16T08:52:55.650Z,947.8
2017-08-16T08:54:03.857Z,947.8
2017-08-16T08:55:11.824Z,947.7
2017-08-16T08:56:19.971Z,947.8
2017-08-16T08:57:28.001Z,947.8
2017-08-16T08:58:36.089Z,947.8
2017-08-16T08:59:44.241Z,947.8
2017-08-16T09:00:52.273Z,947.9
2017-08-16T09:02:00.364Z,947.8
2017-08-16T09:03:08.449Z,947.8
2017-08-16T09:04:16.657Z,947.8
2017-08-16T09:05:24.810Z,947.8
2017-08-16T09:06:32.711Z,947.8
2017-08-16T09:07:40.802Z,947.8
2017-08-16T09:08:48.888Z,947.8
2017-08-16T09:09:57.070Z,947.8
2017-08-16T09:11:05.122Z,947.8
2017-08-16T09:12:13.317Z,947.8
2017-08-16T09:13:21.245Z,947.8
2017-08-16T09:14:29.452Z,947.8
2017-08-16T09:15:37.418Z,947.7
2017-08-16T09:16:45.753Z,947.7
2017-08-16T09:17:53.592Z,947.7
2017-08-16T09:19:01.680Z,947.6
2017-08-16T09:20:09.826Z,947.6
2017-08-16T09:21:17.858Z,947.7
2017-08-16T09:22:26.481Z,947.6
2017-08-16T09:23:34.344Z,947.6
2017-08-16T09:24:42.125Z,947.7
2017-08-16T09:25:50.210Z,947.7
2017-08-16T09:26:58.302Z,947.7
2017-08-16T09:28:06.593Z,947.7
2017-08-16T09:29:14.480Z,947.7
2017-08-16T09:30:22.565Z,947.7
2017-08-16T09:31:30.654Z,947.7
2017-08-16T09:32:38.767Z,947.7
2017-08-16T09:33:46.950Z,947.7
2017-08-16T09:34:54.923Z,947.7
2017-08-16T09:36:03.067Z,947.7
2017-08-16T09:37:11.216Z,947.7
2017-08-16T09:38:19.184Z,947.7
2017-08-16T09:39:27.393Z,947.7
2017-08-16T09:40:35.362Z,947.7
2017-08-16T09:41:43.456Z,947.7
2017-08-16T09:42:51.540Z,947.7
2017-08-16T09:43:59.631Z,947.7
2017-08-16T09:45:07.839Z,947.7
2017-08-16T09:46:15.804Z,947.7
2017-08-16T09:47:24.041Z,947.7
2017-08-16T09:48:31.989Z,947.7
2017-08-16T09:49:40.093Z,947.7
2017-08-16T09:50:48.403Z,947.7
2017-08-16T09:51:56.372Z,947.7
2017-08-16T09:53:04.338Z,947.6
2017-08-16T09:54:12.429Z,947.6
2017-08-16T09:55:20.678Z,947.6
2017-08-16T09:56:28.664Z,947.6
2017-08-16T09:57:36.698Z,947.6
2017-08-16T09:58:44.778Z,947.6
2017-08-16T09:59:52.870Z,947.6
2017-08-16T10:01:00.958Z,947.6
2017-08-16T10:02:09.168Z,947.6
2017-08-16T10:03:17.136Z,947.7
2017-08-16T10:04:25.361Z,947.6
2017-08-16T10:05:33.313Z,947.6
2017-08-16T10:06:41.401Z,947.5
2017-08-16T10:07:49.545Z,947.5
2017-08-16T10:08:57.606Z,947.5
2017-08-16T10:10:05.668Z,947.5
2017-08-16T10:11:13.755Z,947.5
2017-08-16T10:12:21.844Z,947.5
2017-08-16T10:13:30.076Z,947.5
2017-08-16T10:14:38.029Z,947.5
2017-08-16T10:15:46.129Z,947.5
2017-08-16T10:16:54.205Z,947.5
2017-08-16T10:18:02.396Z,947.4
2017-08-16T10:19:10.441Z,947.4
2017-08-16T10:20:18.473Z,947.4
2017-08-16T10:21:26.561Z,947.4
2017-08-16T10:22:34.741Z,947.5
2017-08-16T10:23:42.860Z,947.4
2017-08-16T10:24:50.890Z,947.4
2017-08-16T10:25:58.918Z,947.4
2017-08-16T10:27:07.008Z,947.4
2017-08-16T10:28:15.096Z,947.4
2017-08-16T10:29:23.183Z,947.4
2017-08-16T10:30:31.331Z,947.4
2017-08-16T10:31:39.363Z,947.4
2017-08-16T10:32:47.451Z,947.4
2017-08-16T10:33:55.542Z,947.3
2017-08-16T10:35:03.632Z,947.3
2017-08-16T10:36:11.778Z,947.3
2017-08-16T10:37:19.805Z,947.3
2017-08-16T10:38:27.896Z,947.3
2017-08-16T10:39:36.229Z,947.3
2017-08-16T10:40:44.263Z,947.3
2017-08-16T10:41:52.217Z,947.2
2017-08-16T10:43:00.257Z,947.2
2017-08-16T10:44:08.340Z,947.3
2017-08-16T10:45:16.620Z,947.2
2017-08-16T10:46:24.519Z,947.3
2017-08-16T10:47:32.726Z,947.2
2017-08-16T10:48:40.696Z,947.2
2017-08-16T10:49:48.786Z,947.2
2017-08-16T10:50:56.876Z,947.2
2017-08-16T10:52:04.965Z,947.1
2017-08-16T10:53:13.128Z,947.2
2017-08-16T10:54:21.305Z,947.2
2017-08-16T10:55:29.387Z,947.2
2017-08-16T10:56:37.319Z,947.2
2017-08-16T10:57:45.408Z,947.2
2017-08-16T10:58:53.679Z,947.1
2017-08-16T11:00:01.587Z,947.2
2017-08-16T11:01:09.675Z,947.2
2017-08-16T11:02:17.765Z,947.1
2017-08-16T11:03:25.955Z,947.1
2017-08-16T11:04:34.071Z,947.1
2017-08-16T11:05:42.041Z,947.1
2017-08-16T11:06:50.130Z,947.0
2017-08-16T11:07:58.416Z,947.1
2017-08-16T11:09:06.309Z,947.0
2017-08-16T11:10:14.452Z,947.0
2017-08-16T11:11:22.606Z,947.0
2017-08-16T11:12:30.576Z,947.0
2017-08-16T11:13:38.691Z,947.0
2017-08-16T11:14:46.751Z,947.0
2017-08-16T11:15:54.898Z,947.0
2017-08-16T11:17:02.929Z,947.0
2017-08-16T11:18:11.135Z,947.0
2017-08-16T11:19:19.109Z,947.0
2017-08-16T11:20:27.205Z,947.0
2017-08-16T11:21:35.453Z,947.0
2017-08-16T11:22:43.425Z,946.9
2017-08-16T11:23:51.478Z,946.9
2017-08-16T11:24:59.562Z,946.9
2017-08-16T11:26:07.771Z,946.9
2017-08-16T11:27:15.861Z,946.9
2017-08-16T11:28:23.840Z,946.9
2017-08-16T11:29:31.919Z,947.0
2017-08-16T11:30:40.010Z,946.9
2017-08-16T11:31:48.096Z,946.9
2017-08-16T11:32:56.241Z,946.9
2017-08-16T11:34:04.274Z,946.8
2017-08-16T11:35:12.362Z,946.8
2017-08-16T11:36:20.496Z,946.8
2017-08-16T11:37:28.542Z,946.8
2017-08-16T11:38:36.752Z,946.8
2017-08-16T11:39:44.718Z,946.8
2017-08-16T11:40:52.808Z,946.8
2017-08-16T11:42:00.897Z,946.8
2017-08-16T11:43:09.113Z,946.8
2017-08-16T11:44:17.133Z,946.8
2017-08-16T11:45:25.165Z,946.8
2017-08-16T11:46:33.259Z,946.8
2017-08-16T11:47:41.344Z,946.8
2017-08-16T11:48:49.432Z,946.8
2017-08-16T11:49:57.702Z,946.8
2017-08-16T11:51:05.610Z,946.8
2017-08-16T11:52:13.715Z,946.8
2017-08-16T11:53:21.799Z,946.8
2017-08-16T11:54:29.888Z,946.8
2017-08-16T11:55:38.096Z,946.8
2017-08-16T11:56:46.069Z,946.8
2017-08-16T11:57:54.162Z,946.8
2017-08-16T11:59:02.461Z,946.8
2017-08-16T12:00:10.330Z,946.8
2017-08-16T12:01:18.541Z,946.8
2017-08-16T12:02:26.702Z,946.8
2017-08-16T12:03:34.758Z,946.8
2017-08-16T12:04:42.689Z,946.8
2017-08-16T12:05:50.776Z,946.8
2017-08-16T12:06:59.118Z,946.8
2017-08-16T12:08:06.954Z,946.8
2017-08-16T12:09:15.053Z,946.8
2017-08-16T12:10:23.135Z,946.8
2017-08-16T12:11:31.224Z,946.8
2017-08-16T12:12:39.474Z,946.8
2017-08-16T12:13:47.402Z,946.8
2017-08-16T12:14:55.549Z,946.8
2017-08-16T12:16:03.752Z,946.7
2017-08-16T12:17:11.676Z,946.7
2017-08-16T12:18:19.877Z,946.7
2017-08-16T12:19:27.848Z,946.7
2017-08-16T12:20:35.937Z,946.6
2017-08-16T12:21:44.212Z,946.6
2017-08-16T12:22:52.126Z,946.6
2017-08-16T12:24:00.272Z,946.6
2017-08-16T12:25:08.304Z,946.7
2017-08-16T12:26:16.458Z,946.6
2017-08-16T12:27:24.481Z,946.6
2017-08-16T12:28:32.571Z,946.6
2017-08-16T12:29:40.782Z,946.6
2017-08-16T12:30:48.814Z,946.6
2017-08-16T12:31:56.840Z,946.6
2017-08-16T12:33:04.928Z,946.6
2017-08-16T12:34:13.018Z,946.6
2017-08-16T12:35:21.309Z,946.5
2017-08-16T12:36:29.193Z,946.5
2017-08-16T12:37:37.286Z,946.6
2017-08-16T12:38:45.382Z,946.6
2017-08-16T12:39:53.578Z,946.6
2017-08-16T12:41:01.674Z,946.5
2017-08-16T12:42:09.642Z,946.6
2017-08-16T12:43:17.732Z,946.6
2017-08-16T12:44:25.820Z,946.6
2017-08-16T12:45:33.910Z,946.5
2017-08-16T12:46:42.056Z,946.5
2017-08-16T12:47:50.089Z,946.5
2017-08-16T12:48:58.177Z,946.5
2017-08-16T12:50:06.273Z,946.5
2017-08-16T12:51:14.358Z,946.5
2017-08-16T12:52:22.567Z,946.5
2017-08-16T12:53:30.536Z,946.4
2017-08-16T12:54:38.624Z,946.4
2017-08-16T12:55:46.711Z,946.4
2017-08-16T12:56:54.803Z,946.4
2017-08-16T12:58:03.012Z,946.5
2017-08-16T12:59:10.986Z,946.4
2017-08-16T13:00:19.070Z,946.4
2017-08-16T13:01:27.171Z,946.4
2017-08-16T13:02:35.376Z,946.4
2017-08-16T13:03:43.399Z,946.4
2017-08-16T13:04:51.437Z,946.4
2017-08-16T13:05:59.522Z,946.3
2017-08-16T13:07:07.732Z,946.4
2017-08-16T13:08:15.706Z,946.3
2017-08-16T13:09:23.935Z,946.4
2017-08-16T13:10:31.887Z,946.3
2017-08-16T13:11:39.982Z,946.3
2017-08-16T13:12:48.062Z,946.4
2017-08-16T13:13:56.153Z,946.3
2017-08-16T13:15:04.296Z,946.4
2017-08-16T13:16:12.504Z,946.3
2017-08-16T13:17:20.436Z,946.4
2017-08-16T13:18:28.634Z,946.4
2017-08-16T13:19:36.606Z,946.3
2017-08-16T13:20:44.747Z,946.4
2017-08-16T13:21:52.781Z,946.4
2017-08-16T13:23:00.868Z,946.3
2017-08-16T13:24:09.139Z,946.3
2017-08-16T13:25:17.152Z,946.3
2017-08-16T13:26:25.190Z,946.3
2017-08-16T13:27:33.225Z,946.3
2017-08-16T13:28:41.315Z,946.3
2017-08-16T13:29:49.405Z,946.3
2017-08-16T13:30:57.491Z,946.3
2017-08-16T13:32:05.701Z,946.3
2017-08-16T13:33:13.670Z,946.2
2017-08-16T13:34:21.817Z,946.2
2017-08-16T13:35:29.847Z,946.2
2017-08-16T13:36:37.939Z,946.2
2017-08-16T13:37:46.150Z,946.2
2017-08-16T13:38:54.195Z,946.2
2017-08-16T13:40:02.206Z,946.2
2017-08-16T13:41:10.296Z,946.2
2017-08-16T13:42:18.383Z,946.2
2017-08-16T13:43:26.681Z,946.1
2017-08-16T13:44:34.558Z,946.2
2017-08-16T13:45:42.654Z,946.2
2017-08-16T13:46:50.742Z,946.2
2017-08-16T13:47:58.829Z,946.1
2017-08-16T13:49:06.977Z,946.1
2017-08-16T13:50:15.129Z,946.1
2017-08-16T13:51:23.099Z,946.1
2017-08-16T13:52:31.334Z,946.1
2017-08-16T13:53:39.276Z,946.2
2017-08-16T13:54:47.422Z,946.2
2017-08-16T13:55:55.456Z,946.2
2017-08-16T13:57:03.688Z,946.2
2017-08-16T13:58:11.630Z,946.2
2017-08-16T13:59:19.724Z,946.1
2017-08-16T14:00:27.953Z,946.1
2017-08-16T14:01:35.901Z,946.1
2017-08-16T14:02:44.147Z,946.1
2017-08-16T14:03:52.080Z,946.0
2017-08-16T14:05:00.411Z,946.0
2017-08-16T14:06:08.412Z,946.0
2017-08-16T14:07:16.351Z,946.0
2017-08-16T14:08:24.437Z,946.1
2017-08-16T14:09:32.526Z,946.1
2017-08-16T14:10:40.622Z,946.1
2017-08-16T14:11:48.825Z,946.0
2017-08-16T14:12:56.794Z,946.1
2017-08-16T14:14:04.894Z,946.0
2017-08-16T14:15:13.126Z,946.0
2017-08-16T14:16:21.062Z,946.0
2017-08-16T14:17:29.272Z,946.0
2017-08-16T14:18:37.244Z,946.0
2017-08-16T14:19:45.333Z,946.0
2017-08-16T14:20:53.422Z,945.9
2017-08-16T14:22:01.566Z,945.9
2017-08-16T14:23:09.719Z,945.9
2017-08-16T14:24:17.689Z,945.9
2017-08-16T14:25:25.776Z,945.8
2017-08-16T14:26:33.866Z,945.8
2017-08-16T14:27:41.959Z,945.8
2017-08-16T14:28:50.167Z,945.8
2017-08-16T14:29:58.137Z,945.8
2017-08-16T14:31:06.225Z,945.8
2017-08-16T14:32:14.314Z,945.8
2017-08-16T14:33:22.412Z,945.8
2017-08-16T14:34:30.553Z,945.8
2017-08-16T14:35:38.592Z,945.9
2017-08-16T14:36:46.681Z,945.9
2017-08-16T14:37:54.891Z,945.9
2017-08-16T14:39:02.860Z,945.9
2017-08-16T14:40:11.005Z,945.9
2017-08-16T14:41:19.045Z,945.9
2017-08-16T14:42:27.127Z,945.9
2017-08-16T14:43:35.217Z,945.9
2017-08-16T14:44:43.305Z,945.9
2017-08-16T14:45:51.514Z,945.9
2017-08-16T14:46:59.616Z,945.9
2017-08-16T14:48:07.579Z,945.9
2017-08-16T14:49:15.662Z,945.9
2017-08-16T14:50:23.749Z,945.9
2017-08-16T14:51:32.095Z,945.9
2017-08-16T14:52:39.930Z,945.9
2017-08-16T14:53:48.078Z,945.9
2017-08-16T14:54:56.110Z,945.9
2017-08-16T14:56:04.330Z,945.9
2017-08-16T14:57:12.409Z,945.9
2017-08-16T14:58:20.374Z,945.9
2017-08-16T14:59:28.468Z,945.9
2017-08-16T15:00:36.559Z,945.9
2017-08-16T15:01:44.673Z,945.9
2017-08-16T15:02:52.851Z,945.9
2017-08-16T15:04:00.821Z,945.8
2017-08-16T15:05:09.008Z,945.8
2017-08-16T15:06:17.044Z,945.8
2017-08-16T15:07:25.087Z,945.8
2017-08-16T15:08:33.235Z,945.8
2017-08-16T15:09:41.561Z,945.8
2017-08-16T15:10:49.376Z,945.9
2017-08-16T15:11:57.444Z,945.8
2017-08-16T15:13:05.586Z,945.9
2017-08-16T15:14:13.679Z,945.9
2017-08-16T15:15:21.711Z,945.9
2017-08-16T15:16:29.804Z,945.9
2017-08-16T15:17:37.891Z,945.9
2017-08-16T15:18:45.979Z,945.9
2017-08-16T15:19:54.303Z,945.8
2017-08-16T15:21:02.159Z,945.8
2017-08-16T15:22:10.250Z,945.8
2017-08-16T15:23:18.336Z,945.8
2017-08-16T15:24:26.426Z,945.7
2017-08-16T15:25:34.573Z,945.7
2017-08-16T15:26:42.606Z,945.8
2017-08-16T15:27:50.704Z,945.8
2017-08-16T15:28:58.781Z,945.8
2017-08-16T15:30:06.901Z,945.8
2017-08-16T15:31:15.018Z,945.8
2017-08-16T15:32:23.050Z,945.8
2017-08-16T15:33:31.139Z,945.8
2017-08-16T15:34:39.237Z,945.8
2017-08-16T15:35:47.316Z,945.8
2017-08-16T15:36:55.462Z,945.8
2017-08-16T15:38:03.536Z,945.8
2017-08-16T15:39:11.580Z,945.8
2017-08-16T15:40:19.673Z,945.8
2017-08-16T15:41:27.890Z,945.8
2017-08-16T15:42:35.918Z,945.8
2017-08-16T15:43:43.950Z,945.8
2017-08-16T15:44:52.048Z,945.8
2017-08-16T15:46:00.127Z,945.9
2017-08-16T15:47:08.216Z,945.9
2017-08-16T15:48:16.362Z,945.9
2017-08-16T15:49:24.401Z,945.9
2017-08-16T15:50:32.492Z,945.9
2017-08-16T15:51:40.585Z,945.9
2017-08-16T15:52:48.722Z,945.9
2017-08-16T15:53:56.876Z,945.9
2017-08-16T15:55:04.845Z,945.8
2017-08-16T15:56:12.935Z,945.8
2017-08-16T15:57:21.079Z,945.8
2017-08-16T15:58:29.120Z,945.8
2017-08-16T15:59:37.321Z,945.8
2017-08-16T16:00:45.356Z,945.9
2017-08-16T16:01:53.488Z,945.9
2017-08-16T16:03:01.476Z,945.9
2017-08-16T16:04:09.564Z,945.9
2017-08-16T16:05:17.712Z,945.9
2017-08-16T16:06:25.740Z,945.9
2017-08-16T16:07:33.834Z,945.9
2017-08-16T16:08:41.923Z,945.9
2017-08-16T16:09:50.011Z,945.9
2017-08-16T16:10:58.219Z,945.9
2017-08-16T16:12:06.190Z,945.9
2017-08-16T16:13:14.516Z,945.9
2017-08-16T16:14:22.467Z,945.9
2017-08-16T16:15:30.511Z,945.9
2017-08-16T16:16:38.669Z,945.8
2017-08-16T16:17:46.789Z,945.9
2017-08-16T16:18:54.723Z,945.8
2017-08-16T16:20:02.813Z,945.9
2017-08-16T16:21:10.902Z,945.8
2017-08-16T16:22:19.047Z,945.9
2017-08-16T16:23:27.179Z,945.8
2017-08-16T16:24:35.168Z,945.8
2017-08-16T16:25:43.257Z,945.9
2017-08-16T16:26:51.345Z,945.8
2017-08-16T16:27:59.615Z,945.8
2017-08-16T16:29:07.580Z,945.8
2017-08-16T16:30:15.613Z,945.8
2017-08-16T16:31:23.704Z,945.8
2017-08-16T16:32:31.790Z,945.8
2017-08-16T16:33:39.934Z,945.7
2017-08-16T16:34:47.976Z,945.7
2017-08-16T16:35:56.057Z,945.8
2017-08-16T16:37:04.290Z,945.8
2017-08-16T16:38:12.407Z,945.8
2017-08-16T16:39:20.446Z,945.8
2017-08-16T16:40:28.415Z,945.8
2017-08-16T16:41:36.630Z,945.8
2017-08-16T16:42:44.591Z,945.8
2017-08-16T16:43:52.681Z,945.8
2017-08-16T16:45:00.894Z,945.8
2017-08-16T16:46:09.054Z,945.8
2017-08-16T16:47:16.949Z,945.8
2017-08-16T16:48:25.038Z,945.8
2017-08-16T16:49:33.137Z,945.8
2017-08-16T16:50:41.280Z,945.8
2017-08-16T16:51:49.311Z,945.8
2017-08-16T16:52:57.403Z,945.8
2017-08-16T16:54:05.493Z,945.8
2017-08-16T16:55:13.607Z,945.8
2017-08-16T16:56:21.802Z,945.8
2017-08-16T16:57:29.768Z,945.8
2017-08-16T16:58:37.857Z,945.8
2017-08-16T16:59:45.948Z,945.8
2017-08-16T17:00:54.251Z,945.8
2017-08-16T17:02:02.244Z,945.8
2017-08-16T17:03:10.213Z,945.8
2017-08-16T17:04:18.399Z,945.8
2017-08-16T17:05:26.393Z,945.9
2017-08-16T17:06:34.486Z,945.9
2017-08-16T17:07:42.689Z,945.9
2017-08-16T17:08:50.759Z,945.8
2017-08-16T17:09:58.746Z,945.9
2017-08-16T17:11:06.836Z,945.9
2017-08-16T17:12:14.928Z,945.9
2017-08-16T17:13:23.238Z,945.9
2017-08-16T17:14:31.104Z,945.9
2017-08-16T17:15:39.195Z,945.9
2017-08-16T17:16:47.410Z,945.9
2017-08-16T17:17:55.377Z,945.9
2017-08-16T17:19:03.515Z,945.8
2017-08-16T17:20:11.548Z,945.8
2017-08-16T17:21:19.638Z,945.9
2017-08-16T17:22:27.726Z,945.9
2017-08-16T17:23:36.005Z,945.8
2017-08-16T17:24:44.024Z,945.8
2017-08-16T17:25:51.992Z,945.9
2017-08-16T17:27:00.089Z,945.8
2017-08-16T17:28:08.172Z,945.8
2017-08-16T17:29:16.259Z,945.9
2017-08-16T17:30:24.423Z,945.8
2017-08-16T17:31:32.560Z,945.8
2017-08-16T17:32:40.645Z,945.8
2017-08-16T17:33:48.615Z,945.8
2017-08-16T17:34:56.712Z,945.8
2017-08-16T17:36:04.858Z,945.9
2017-08-16T17:37:12.889Z,945.9
2017-08-16T17:38:20.982Z,945.8
2017-08-16T17:39:29.076Z,945.9
2017-08-16T17:40:37.158Z,945.8
2017-08-16T17:41:45.300Z,945.8
2017-08-16T17:42:53.334Z,945.8
2017-08-16T17:44:01.431Z,945.8
2017-08-16T17:45:09.614Z,945.8
2017-08-16T17:46:17.738Z,945.8
2017-08-16T17:47:25.817Z,945.8
2017-08-16T17:48:33.848Z,945.8
2017-08-16T17:49:41.953Z,945.8
2017-08-16T17:50:49.964Z,945.8
2017-08-16T17:51:58.054Z,945.8
2017-08-16T17:53:06.197Z,945.8
2017-08-16T17:54:14.235Z,945.8
2017-08-16T17:55:22.319Z,945.8
2017-08-16T17:56:30.405Z,945.8
2017-08-16T17:57:38.496Z,945.8
2017-08-16T17:58:46.861Z,945.8
2017-08-16T17:59:54.674Z,945.8
2017-08-16T18:01:02.762Z,945.9
2017-08-16T18:02:10.851Z,945.8
2017-08-16T18:03:18.940Z,945.8
2017-08-16T18:04:27.205Z,945.8
2017-08-16T18:05:35.122Z,945.7
2017-08-16T18:06:43.202Z,945.7
2017-08-16T18:07:51.293Z,945.7
2017-08-16T18:08:59.382Z,945.7
2017-08-16T18:10:07.591Z,945.8
2017-08-16T18:11:15.742Z,945.7
2017-08-16T18:12:23.650Z,945.7
2017-08-16T18:13:31.738Z,945.8
2017-08-16T18:14:39.826Z,945.7
2017-08-16T18:15:48.038Z,945.8
2017-08-16T18:16:56.005Z,945.8
2017-08-16T18:18:04.102Z,945.8
2017-08-16T18:19:12.188Z,945.8
2017-08-16T18:20:20.327Z,945.8
2017-08-16T18:21:28.481Z,945.9
2017-08-16T18:22:36.448Z,945.9
2017-08-16T18:23:44.538Z,945.9
2017-08-16T18:24:52.625Z,945.9
2017-08-16T18:26:00.713Z,945.9
2017-08-16T18:27:08.862Z,945.9
2017-08-16T18:28:16.894Z,945.9
2017-08-16T18:29:24.982Z,945.9
2017-08-16T18:30:33.071Z,946.0
2017-08-16T18:31:41.338Z,945.9
2017-08-16T18:32:49.368Z,945.9
2017-08-16T18:33:57.338Z,945.9
2017-08-16T18:35:05.424Z,946.0
2017-08-16T18:36:13.570Z,946.0
2017-08-16T18:37:21.604Z,946.0
2017-08-16T18:38:29.818Z,946.0
2017-08-16T18:39:37.782Z,946.1
2017-08-16T18:40:45.870Z,946.1
2017-08-16T18:41:53.960Z,946.1
2017-08-16T18:43:02.049Z,946.1
2017-08-16T18:44:10.194Z,946.1
2017-08-16T18:45:18.262Z,946.2
2017-08-16T18:46:26.314Z,946.2
2017-08-16T18:47:34.415Z,946.2
2017-08-16T18:48:42.499Z,946.2
2017-08-16T18:49:50.647Z,946.2
2017-08-16T18:50:58.684Z,946.2
2017-08-16T18:52:06.825Z,946.2
2017-08-16T18:53:15.019Z,946.2
2017-08-16T18:54:23.034Z,946.2
2017-08-16T18:55:31.153Z,946.2
2017-08-16T18:56:39.131Z,946.1
2017-08-16T18:57:47.355Z,946.1
2017-08-16T18:58:55.366Z,946.2
2017-08-16T19:00:03.409Z,946.2
2017-08-16T19:01:11.634Z,946.2
2017-08-16T19:02:19.788Z,946.2
2017-08-16T19:03:27.708Z,946.1
2017-08-16T19:04:35.781Z,946.2
2017-08-16T19:05:43.866Z,946.2
2017-08-16T19:06:52.169Z,946.2
2017-08-16T19:08:00.113Z,946.2
2017-08-16T19:09:08.145Z,946.2
2017-08-16T19:10:16.232Z,946.2
2017-08-16T19:11:24.320Z,946.2
2017-08-16T19:12:32.467Z,946.2
2017-08-16T19:13:40.498Z,946.2
2017-08-16T19:14:48.584Z,946.2
2017-08-16T19:15:56.674Z,946.3
2017-08-16T19:17:04.761Z,946.2
2017-08-16T19:18:12.972Z,946.2
2017-08-16T19:19:20.942Z,946.3
2017-08-16T19:20:29.030Z,946.2
2017-08-16T19:21:37.557Z,946.2
2017-08-16T19:22:45.227Z,946.2
2017-08-16T19:23:53.416Z,946.2
2017-08-16T19:25:01.386Z,946.2
2017-08-16T19:26:09.549Z,946.3